Time;durP1;ratioP1;P1;durP2;ratioP2;P2;SDS_P1;SDS_P2;PMS_P1;PMS_P2;Temp;Humidity;BMP_temperature;BMP_pressure;BME280_temperature;BME280_humidity;BME280_pressure;Samples;Min_cycle;Max_cycle;Signal;HPM_P1;HPM_P2
2023/05/25 00:01:12;;;;;;;12.15;5.13;;;10.10;99.90;;;;;;5029714;28;20068;-58
2023/05/25 00:03:39;;;;;;;11.55;5.00;;;10.10;99.90;;;;;;5034480;28;20508;-59
2023/05/25 00:06:06;;;;;;;10.60;4.63;;;10.10;99.90;;;;;;5030520;28;20044;-59
2023/05/25 00:08:31;;;;;;;11.75;4.95;;;10.10;99.90;;;;;;5030284;28;20081;-60
2023/05/25 00:10:58;;;;;;;11.02;4.60;;;10.10;99.90;;;;;;5030726;28;20045;-58
2023/05/25 00:13:24;;;;;;;11.63;4.80;;;10.10;99.90;;;;;;5020690;28;20052;-59
2023/05/25 00:15:50;;;;;;;17.05;5.70;;;10.00;99.90;;;;;;5023194;28;20036;-59
2023/05/25 00:18:15;;;;;;;11.25;4.80;;;10.10;99.90;;;;;;5027599;28;20095;-59
2023/05/25 00:20:43;;;;;;;14.07;5.32;;;10.00;99.90;;;;;;5030813;28;20045;-58
2023/05/25 00:23:09;;;;;;;12.27;4.70;;;10.00;99.90;;;;;;5032824;28;20056;-59
2023/05/25 00:25:35;;;;;;;7.53;4.60;;;10.00;99.90;;;;;;5023278;28;20056;-59
2023/05/25 00:28:03;;;;;;;11.88;4.68;;;10.00;99.90;;;;;;5024138;28;20072;-58
2023/05/25 00:30:29;;;;;;;10.25;4.28;;;10.00;99.90;;;;;;5023638;28;20496;-58
2023/05/25 00:32:54;;;;;;;9.07;4.53;;;9.90;99.90;;;;;;5028662;28;20091;-59
2023/05/25 00:35:20;;;;;;;12.90;4.13;;;9.90;99.90;;;;;;5032543;28;20055;-59
2023/05/25 00:37:46;;;;;;;9.15;4.22;;;9.90;99.90;;;;;;5027709;28;20076;-59
2023/05/25 00:40:16;;;;;;;10.98;4.72;;;9.90;99.90;;;;;;5028996;28;20049;-58
2023/05/25 00:42:43;;;;;;;8.25;4.25;;;9.90;99.90;;;;;;5027357;28;20045;-59
2023/05/25 00:45:09;;;;;;;11.50;5.07;;;9.80;99.90;;;;;;5028024;28;20048;-58
2023/05/25 00:47:35;;;;;;;12.43;5.15;;;9.80;99.90;;;;;;5038943;28;20084;-59
2023/05/25 00:50:01;;;;;;;10.15;4.68;;;9.80;99.90;;;;;;5035144;28;21528;-58
2023/05/25 00:52:27;;;;;;;13.13;5.45;;;9.70;99.90;;;;;;5026762;28;20535;-59
2023/05/25 00:55:30;;;;;;;12.18;5.40;;;9.70;99.90;;;;;;5025599;28;20042;-59
2023/05/25 00:57:59;;;;;;;14.90;5.05;;;9.60;99.90;;;;;;5029689;28;20069;-59
2023/05/25 01:00:26;;;;;;;12.68;4.95;;;9.60;99.90;;;;;;5028529;28;20414;-58
2023/05/25 01:02:55;;;;;;;7.97;3.90;;;9.60;99.90;;;;;;5026353;28;20049;-59
2023/05/25 01:05:24;;;;;;;10.10;4.45;;;9.50;99.90;;;;;;5031105;28;20045;-59
2023/05/25 01:07:52;;;;;;;7.43;3.80;;;9.50;99.90;;;;;;5028560;28;20048;-59
2023/05/25 01:10:23;;;;;;;12.20;4.15;;;9.50;99.90;;;;;;5028834;28;20496;-59
2023/05/25 01:12:52;;;;;;;9.55;4.15;;;9.50;99.90;;;;;;5026177;28;20045;-58
2023/05/25 01:15:19;;;;;;;10.65;4.45;;;9.40;99.90;;;;;;5024840;28;20048;-58
2023/05/25 01:17:45;;;;;;;9.65;4.65;;;9.40;99.90;;;;;;5017146;28;20489;-58
2023/05/25 01:20:11;;;;;;;12.20;4.65;;;9.40;99.90;;;;;;5027280;28;20040;-58
2023/05/25 01:26:02;;;;;;;12.25;5.70;;;9.30;99.90;;;;;;5017453;28;20144;-58
2023/05/25 01:28:38;;;;;;;11.43;5.30;;;9.30;99.90;;;;;;5028878;28;20120;-58
2023/05/25 01:31:06;;;;;;;9.02;4.90;;;9.30;99.90;;;;;;5028433;28;20041;-59
2023/05/25 01:33:32;;;;;;;10.38;5.28;;;9.20;99.90;;;;;;5030624;28;20574;-59
2023/05/25 01:35:59;;;;;;;8.77;4.25;;;9.20;99.90;;;;;;5031569;28;20752;-59
2023/05/25 01:38:25;;;;;;;8.75;4.30;;;9.20;99.90;;;;;;5036818;28;20044;-59
2023/05/25 01:40:50;;;;;;;13.57;5.15;;;9.20;99.90;;;;;;5036387;28;20561;-58
2023/05/25 01:43:16;;;;;;;13.20;5.70;;;9.20;99.90;;;;;;5032071;28;20087;-58
2023/05/25 01:45:42;;;;;;;11.57;5.30;;;9.20;99.90;;;;;;5029924;28;20080;-59
2023/05/25 01:48:08;;;;;;;9.45;4.85;;;9.20;99.90;;;;;;5030494;28;20540;-59
2023/05/25 01:50:53;;;;;;;14.40;5.97;;;9.30;99.90;;;;;;5032502;28;20140;-59
2023/05/25 01:53:39;;;;;;;15.20;5.60;;;9.30;99.90;;;;;;5032522;28;20124;-58
2023/05/25 01:56:10;;;;;;;8.95;5.00;;;9.20;99.90;;;;;;5029117;28;20041;-58
2023/05/25 01:58:47;;;;;;;11.77;5.38;;;9.20;99.90;;;;;;5032917;28;21381;-58
2023/05/25 02:01:15;;;;;;;11.48;5.45;;;9.20;99.90;;;;;;5032901;28;20146;-58
2023/05/25 02:03:43;;;;;;;15.05;5.93;;;9.20;99.90;;;;;;5035539;28;20091;-57
2023/05/25 02:06:09;;;;;;;15.27;6.18;;;9.20;99.90;;;;;;5031104;28;20274;-59
2023/05/25 02:08:35;;;;;;;11.60;6.00;;;9.20;99.90;;;;;;5036369;28;20041;-58
2023/05/25 02:11:02;;;;;;;16.15;5.95;;;9.20;99.90;;;;;;5030655;28;20048;-58
2023/05/25 02:13:27;;;;;;;11.43;5.15;;;9.20;99.90;;;;;;5031665;28;20057;-58
2023/05/25 02:15:53;;;;;;;12.23;5.47;;;9.20;99.90;;;;;;5032304;28;20493;-58
2023/05/25 02:18:19;;;;;;;15.82;6.03;;;9.20;99.90;;;;;;5027080;28;20065;-59
2023/05/25 02:20:46;;;;;;;12.15;5.50;;;9.20;99.90;;;;;;5033244;28;20098;-59
2023/05/25 02:23:12;;;;;;;17.60;6.45;;;9.20;99.90;;;;;;5032629;28;20124;-58
2023/05/25 02:25:37;;;;;;;10.27;5.07;;;9.10;99.90;;;;;;5016188;28;20036;-58
2023/05/25 02:28:03;;;;;;;10.23;3.95;;;9.10;99.90;;;;;;5030048;28;20156;-58
2023/05/25 02:30:29;;;;;;;11.40;4.65;;;9.10;99.90;;;;;;5031458;28;20731;-58
2023/05/25 02:32:55;;;;;;;10.82;4.85;;;9.10;99.90;;;;;;5024117;28;20040;-58
2023/05/25 02:35:21;;;;;;;11.20;5.07;;;9.00;99.90;;;;;;5032793;28;20049;-58
2023/05/25 02:37:47;;;;;;;11.40;4.95;;;9.00;99.90;;;;;;5035191;28;20041;-58
2023/05/25 02:40:13;;;;;;;12.27;5.18;;;9.00;99.90;;;;;;5032754;28;20033;-59
2023/05/25 02:42:39;;;;;;;12.00;5.55;;;8.90;99.90;;;;;;5031596;28;20057;-58
2023/05/25 02:45:09;;;;;;;12.40;5.30;;;9.00;99.90;;;;;;5031803;28;20051;-58
2023/05/25 02:47:35;;;;;;;16.15;5.53;;;8.90;99.90;;;;;;5034830;28;20508;-57
2023/05/25 02:50:01;;;;;;;11.45;5.63;;;8.90;99.90;;;;;;5029470;28;20040;-58
2023/05/25 02:52:29;;;;;;;11.02;5.43;;;8.90;99.90;;;;;;5034017;28;20064;-59
2023/05/25 02:54:55;;;;;;;12.23;5.38;;;8.90;99.90;;;;;;5036159;28;20040;-58
2023/05/25 02:57:22;;;;;;;16.10;6.78;;;8.90;99.90;;;;;;5032701;28;20416;-59
2023/05/25 02:59:48;;;;;;;10.48;5.55;;;8.90;99.90;;;;;;5035899;28;20048;-59
2023/05/25 03:02:17;;;;;;;18.60;6.43;;;8.80;99.90;;;;;;5032037;28;20401;-58
2023/05/25 03:04:44;;;;;;;14.10;6.78;;;8.90;99.90;;;;;;5038522;28;20049;-59
2023/05/25 03:07:11;;;;;;;16.88;6.50;;;8.80;99.90;;;;;;5035514;28;20509;-59
2023/05/25 03:09:37;;;;;;;14.60;6.57;;;8.80;99.90;;;;;;5036942;28;20049;-58
2023/05/25 03:12:03;;;;;;;14.80;5.90;;;8.80;99.90;;;;;;5037447;28;20374;-58
2023/05/25 03:14:28;;;;;;;14.23;6.40;;;8.80;99.90;;;;;;5037862;28;20099;-59
2023/05/25 03:16:54;;;;;;;12.63;6.00;;;8.80;99.90;;;;;;5037769;28;20042;-59
2023/05/25 03:19:20;;;;;;;11.48;6.45;;;8.80;99.90;;;;;;5037689;28;20050;-58
2023/05/25 03:21:46;;;;;;;14.40;6.68;;;8.80;99.90;;;;;;5038351;28;20052;-59
2023/05/25 03:24:12;;;;;;;15.18;5.47;;;8.80;99.90;;;;;;5033694;28;20484;-58
2023/05/25 03:26:38;;;;;;;10.40;6.13;;;8.80;99.90;;;;;;5021527;28;20041;-59
2023/05/25 03:29:05;;;;;;;16.23;7.10;;;8.80;99.90;;;;;;5033912;28;20045;-58
2023/05/25 03:31:31;;;;;;;13.23;6.20;;;8.70;99.90;;;;;;5031410;28;20072;-58
2023/05/25 03:33:57;;;;;;;19.67;7.15;;;8.70;99.90;;;;;;5008429;28;20040;-58
2023/05/25 03:36:26;;;;;;;14.27;6.18;;;8.80;99.90;;;;;;5019438;28;20056;-59
2023/05/25 03:38:52;;;;;;;11.48;6.40;;;8.70;99.90;;;;;;5030825;28;20049;-58
2023/05/25 03:41:18;;;;;;;9.93;5.50;;;8.70;99.90;;;;;;5031116;28;20053;-58
2023/05/25 03:43:44;;;;;;;12.35;6.00;;;8.70;99.90;;;;;;5029520;28;20154;-58
2023/05/25 03:46:10;;;;;;;13.52;6.10;;;8.70;99.90;;;;;;5033394;28;20388;-58
2023/05/25 03:48:36;;;;;;;11.15;5.72;;;8.70;99.90;;;;;;5028603;28;20527;-58
2023/05/25 03:51:02;;;;;;;9.68;6.45;;;8.70;99.90;;;;;;5034679;28;20040;-58
2023/05/25 03:53:28;;;;;;;12.70;6.07;;;8.60;99.90;;;;;;5035057;28;20500;-58
2023/05/25 03:55:54;;;;;;;12.07;6.53;;;8.60;99.90;;;;;;5031494;28;20043;-57
2023/05/25 03:58:20;;;;;;;14.05;6.85;;;8.60;99.90;;;;;;5028610;28;20073;-57
2023/05/25 04:00:49;;;;;;;12.80;7.30;;;8.60;99.90;;;;;;5027536;28;20352;-59
2023/05/25 04:03:15;;;;;;;16.77;7.35;;;8.60;99.90;;;;;;5027154;28;20059;-58
2023/05/25 04:05:41;;;;;;;14.13;6.95;;;8.60;99.90;;;;;;5030444;28;20519;-58
2023/05/25 04:08:07;;;;;;;12.18;6.63;;;8.60;99.90;;;;;;5033993;28;20048;-58
2023/05/25 04:10:33;;;;;;;12.88;7.07;;;8.60;99.90;;;;;;5030382;28;20045;-59
2023/05/25 04:12:59;;;;;;;14.77;8.40;;;8.60;99.90;;;;;;5030389;28;20098;-59
2023/05/25 04:15:25;;;;;;;11.95;6.68;;;8.60;99.90;;;;;;5029561;28;20045;-59
2023/05/25 04:17:50;;;;;;;10.48;7.15;;;8.60;99.90;;;;;;5012525;28;20052;-58
2023/05/25 04:20:16;;;;;;;12.13;7.20;;;8.60;99.90;;;;;;5031130;28;22078;-58
2023/05/25 04:22:43;;;;;;;10.88;6.93;;;8.60;99.90;;;;;;5031141;28;20032;-58
2023/05/25 04:25:09;;;;;;;11.55;6.90;;;8.60;99.90;;;;;;5029948;28;20055;-58
2023/05/25 04:27:35;;;;;;;11.95;7.20;;;8.70;99.90;;;;;;5028352;28;20041;-58
2023/05/25 04:30:01;;;;;;;10.95;6.25;;;8.70;99.90;;;;;;5034609;28;20064;-59
2023/05/25 04:32:30;;;;;;;10.73;7.32;;;8.70;99.90;;;;;;5029365;28;20587;-57
2023/05/25 04:34:57;;;;;;;13.38;7.47;;;8.70;99.90;;;;;;5036958;28;20048;-58
2023/05/25 04:37:27;;;;;;;13.43;7.40;;;8.70;99.90;;;;;;5023580;28;20199;-58
2023/05/25 04:39:53;;;;;;;11.90;7.18;;;8.80;99.90;;;;;;5035966;28;20040;-58
2023/05/25 04:42:22;;;;;;;13.57;7.75;;;8.80;99.90;;;;;;5050460;28;20037;-59
2023/05/25 04:44:54;;;;;;;17.88;7.95;;;8.90;99.90;;;;;;5035102;28;20040;-58
2023/05/25 04:47:21;;;;;;;16.55;7.50;;;8.90;99.90;;;;;;5035093;28;20477;-58
2023/05/25 04:49:46;;;;;;;15.52;8.00;;;9.00;99.90;;;;;;5039517;28;20040;-57
2023/05/25 04:52:12;;;;;;;16.85;8.13;;;9.00;99.90;;;;;;5041176;28;20041;-58
2023/05/25 04:54:38;;;;;;;15.20;8.45;;;9.10;99.90;;;;;;5039728;28;20041;-57
2023/05/25 04:57:05;;;;;;;19.83;8.73;;;9.20;99.90;;;;;;5039199;28;20071;-58
2023/05/25 04:59:30;;;;;;;15.63;8.75;;;9.20;99.90;;;;;;5044594;28;20511;-58
2023/05/25 05:01:56;;;;;;;24.45;9.93;;;9.20;99.90;;;;;;5044537;28;20076;-59
2023/05/25 05:04:22;;;;;;;18.60;9.82;;;9.30;99.90;;;;;;5037714;28;20053;-59
2023/05/25 05:06:47;;;;;;;24.73;10.23;;;9.40;99.90;;;;;;5025904;28;20056;-58
2023/05/25 05:09:13;;;;;;;21.80;10.95;;;9.50;99.90;;;;;;5034197;28;20497;-58
2023/05/25 05:11:39;;;;;;;21.33;10.70;;;9.60;99.90;;;;;;5044319;28;20056;-58
2023/05/25 05:14:05;;;;;;;22.38;11.23;;;9.70;99.90;;;;;;5032269;28;20042;-59
2023/05/25 05:16:33;;;;;;;19.48;10.55;;;9.80;99.90;;;;;;5029811;28;20041;-58
2023/05/25 05:19:00;;;;;;;26.58;12.05;;;9.90;99.90;;;;;;5032179;28;20473;-58
2023/05/25 05:21:26;;;;;;;26.10;12.32;;;10.00;99.90;;;;;;5018174;28;20102;-58
2023/05/25 05:23:52;;;;;;;27.13;13.50;;;10.20;99.90;;;;;;5034967;28;20048;-58
2023/05/25 05:26:18;;;;;;;23.30;12.52;;;10.30;99.90;;;;;;5032823;28;20429;-58
2023/05/25 05:28:44;;;;;;;20.92;11.35;;;10.40;99.90;;;;;;5040164;28;20095;-58
2023/05/25 05:31:10;;;;;;;25.10;12.52;;;10.60;99.90;;;;;;5032528;28;20128;-59
2023/05/25 05:33:36;;;;;;;29.83;12.10;;;10.70;99.90;;;;;;5026012;28;20679;-58
2023/05/25 05:36:03;;;;;;;24.65;11.73;;;10.80;99.90;;;;;;5032668;28;20049;-59
2023/05/25 05:38:29;;;;;;;25.00;10.93;;;10.90;99.90;;;;;;5029849;28;20048;-59
2023/05/25 05:40:55;;;;;;;24.08;11.27;;;11.00;99.90;;;;;;5030803;28;20055;-59
2023/05/25 05:43:20;;;;;;;22.13;10.85;;;11.10;99.90;;;;;;5032350;28;20041;-59
2023/05/25 05:45:46;;;;;;;24.58;10.20;;;11.20;99.90;;;;;;5020291;28;20052;-58
2023/05/25 05:48:12;;;;;;;22.08;9.52;;;11.30;99.90;;;;;;5011552;28;20041;-59
2023/05/25 05:50:38;;;;;;;23.27;8.73;;;11.40;99.90;;;;;;5034397;28;20025;-60
2023/05/25 05:53:05;;;;;;;21.90;9.07;;;11.50;99.90;;;;;;5029184;28;20045;-58
2023/05/25 05:55:32;;;;;;;22.38;8.27;;;11.60;99.90;;;;;;5023381;28;20041;-59
2023/05/25 05:57:57;;;;;;;20.13;8.45;;;11.70;99.90;;;;;;5036910;28;20519;-59
2023/05/25 06:00:23;;;;;;;17.88;6.38;;;11.80;99.90;;;;;;5032315;28;20030;-58
2023/05/25 06:02:50;;;;;;;16.48;5.60;;;11.90;99.90;;;;;;5027189;28;20136;-59
2023/05/25 06:05:16;;;;;;;18.92;5.47;;;11.90;99.90;;;;;;5030428;28;20085;-58
2023/05/25 06:07:42;;;;;;;17.23;5.28;;;12.10;99.90;;;;;;5027666;28;20428;-58
2023/05/25 06:10:08;;;;;;;22.40;5.15;;;12.10;99.90;;;;;;5024186;28;20588;-58
2023/05/25 06:12:34;;;;;;;17.67;5.18;;;12.10;99.90;;;;;;5027737;28;20477;-64
2023/05/25 06:15:00;;;;;;;21.30;4.90;;;12.20;99.90;;;;;;5024833;28;20045;-64
2023/05/25 06:17:26;;;;;;;18.00;4.60;;;12.30;99.90;;;;;;5033232;28;20142;-64
2023/05/25 06:19:52;;;;;;;20.55;5.20;;;12.30;99.90;;;;;;5017144;28;20056;-64
2023/05/25 06:22:18;;;;;;;16.95;4.00;;;12.40;99.90;;;;;;5001992;28;20037;-64
2023/05/25 06:24:44;;;;;;;16.08;4.88;;;12.40;99.90;;;;;;5029518;28;20120;-64
2023/05/25 06:27:09;;;;;;;14.30;3.90;;;12.40;99.90;;;;;;5017745;28;20036;-64
2023/05/25 06:29:35;;;;;;;17.60;4.43;;;12.50;99.90;;;;;;4999136;28;20116;-64
2023/05/25 06:32:01;;;;;;;17.77;5.15;;;12.50;99.90;;;;;;5021922;28;20127;-63
2023/05/25 06:34:26;;;;;;;14.65;4.38;;;12.50;99.90;;;;;;5018097;28;20116;-64
2023/05/25 06:36:52;;;;;;;13.32;4.00;;;12.50;99.90;;;;;;5019255;28;20047;-64
2023/05/25 06:39:19;;;;;;;14.57;3.78;;;12.60;99.90;;;;;;5026670;28;20045;-64
2023/05/25 06:41:44;;;;;;;16.08;4.75;;;12.60;99.90;;;;;;5028050;28;20568;-64
2023/05/25 06:44:10;;;;;;;21.38;4.70;;;12.70;99.90;;;;;;5043510;28;20095;-64
2023/05/25 06:46:37;;;;;;;25.55;5.53;;;12.80;99.90;;;;;;5024705;28;20477;-64
2023/05/25 06:49:03;;;;;;;19.10;5.03;;;13.00;99.90;;;;;;5023090;28;20448;-64
2023/05/25 06:51:30;;;;;;;24.90;5.57;;;13.00;99.90;;;;;;5045032;28;20199;-64
2023/05/25 06:53:56;;;;;;;21.20;5.32;;;13.10;99.90;;;;;;5015135;28;20159;-65
2023/05/25 06:56:22;;;;;;;23.55;5.40;;;13.10;99.90;;;;;;5039810;28;22384;-64
2023/05/25 06:58:48;;;;;;;26.88;4.80;;;13.10;99.90;;;;;;5042812;28;20045;-64
2023/05/25 07:01:15;;;;;;;26.40;4.85;;;13.10;99.90;;;;;;5043054;28;20053;-64
2023/05/25 07:03:41;;;;;;;27.08;5.57;;;13.30;99.90;;;;;;5036399;28;20054;-64
2023/05/25 07:06:07;;;;;;;23.17;5.90;;;13.40;99.90;;;;;;5029850;28;20099;-64
2023/05/25 07:08:33;;;;;;;22.23;5.13;;;13.40;99.90;;;;;;5041377;28;20083;-65
2023/05/25 07:10:59;;;;;;;20.25;5.68;;;13.40;99.90;;;;;;5037717;28;20497;-64
2023/05/25 07:13:24;;;;;;;23.80;5.85;;;13.40;99.90;;;;;;5038715;28;20539;-64
2023/05/25 07:15:51;;;;;;;30.00;6.75;;;13.40;99.90;;;;;;5034527;28;20155;-64
2023/05/25 07:18:17;;;;;;;25.33;5.50;;;13.40;99.90;;;;;;5042875;28;20099;-64
2023/05/25 07:20:43;;;;;;;28.02;5.35;;;13.30;99.90;;;;;;5048666;28;20053;-65
2023/05/25 07:23:10;;;;;;;25.65;5.55;;;13.30;99.90;;;;;;5048856;28;20147;-64
2023/05/25 07:25:40;;;;;;;29.48;6.15;;;13.30;99.90;;;;;;5042818;28;20033;-65
2023/05/25 07:28:06;;;;;;;25.38;5.32;;;13.30;99.90;;;;;;5023450;28;20060;-64
2023/05/25 07:30:32;;;;;;;28.25;5.45;;;13.40;99.90;;;;;;5027351;28;20048;-64
2023/05/25 07:32:58;;;;;;;28.55;5.65;;;13.50;99.90;;;;;;5018763;28;20036;-64
2023/05/25 07:35:24;;;;;;;27.95;5.25;;;13.60;99.90;;;;;;5020298;28;20070;-65
2023/05/25 07:38:00;;;;;;;29.27;5.57;;;13.60;99.90;;;;;;5028491;28;20103;-65
2023/05/25 07:40:26;;;;;;;34.55;5.80;;;13.60;99.90;;;;;;5035504;28;20040;-64
2023/05/25 07:42:53;;;;;;;27.92;6.15;;;13.70;99.90;;;;;;5040318;28;20102;-64
2023/05/25 07:45:19;;;;;;;27.83;5.88;;;13.70;99.90;;;;;;5038570;28;20079;-64
2023/05/25 07:47:45;;;;;;;27.45;5.50;;;13.80;99.90;;;;;;5039529;28;20049;-65
2023/05/25 07:50:13;;;;;;;28.23;6.05;;;14.00;99.90;;;;;;5038991;28;20406;-65
2023/05/25 07:52:38;;;;;;;29.77;5.93;;;14.10;99.90;;;;;;5038242;28;20473;-64
2023/05/25 07:55:05;;;;;;;28.15;5.60;;;14.10;99.90;;;;;;5022051;28;20075;-65
2023/05/25 07:57:31;;;;;;;27.80;5.53;;;14.00;99.90;;;;;;5022749;28;20064;-64
2023/05/25 07:59:57;;;;;;;34.85;7.45;;;14.00;99.90;;;;;;5035875;28;20037;-65
2023/05/25 08:02:23;;;;;;;27.92;5.50;;;14.10;99.90;;;;;;5035763;28;20045;-65
2023/05/25 08:04:49;;;;;;;29.95;5.68;;;14.20;99.90;;;;;;5016949;28;20043;-65
2023/05/25 08:07:15;;;;;;;28.55;6.18;;;14.40;99.90;;;;;;5019199;28;22455;-65
2023/05/25 08:09:40;;;;;;;31.08;5.60;;;14.50;99.90;;;;;;5020050;28;20114;-65
2023/05/25 08:12:07;;;;;;;22.65;4.90;;;14.60;99.90;;;;;;5023050;28;20032;-65
2023/05/25 08:14:32;;;;;;;30.40;5.45;;;14.70;99.90;;;;;;5037822;28;20389;-65
2023/05/25 08:16:58;;;;;;;25.65;5.15;;;14.80;99.90;;;;;;5035126;28;20040;-65
2023/05/25 08:19:24;;;;;;;23.15;4.82;;;14.80;99.90;;;;;;5019913;28;20042;-65
2023/05/25 08:21:50;;;;;;;23.67;4.93;;;14.90;99.90;;;;;;5038984;28;20641;-65
2023/05/25 08:24:16;;;;;;;22.35;4.68;;;15.00;99.90;;;;;;5039301;28;20239;-65
2023/05/25 08:26:42;;;;;;;24.77;5.00;;;15.20;99.90;;;;;;5031334;28;20037;-65
2023/05/25 08:29:07;;;;;;;23.55;4.70;;;15.20;99.90;;;;;;5039009;28;20076;-65
2023/05/25 08:31:34;;;;;;;25.15;5.45;;;15.30;99.90;;;;;;5035059;28;20145;-65
2023/05/25 08:34:00;;;;;;;22.25;4.78;;;15.30;99.90;;;;;;5039113;28;20038;-65
2023/05/25 08:36:26;;;;;;;22.83;5.35;;;15.40;99.90;;;;;;5039996;28;20064;-65
2023/05/25 08:38:53;;;;;;;25.58;5.38;;;15.30;99.90;;;;;;5030658;28;20132;-65
2023/05/25 08:41:20;;;;;;;28.73;5.45;;;15.40;99.90;;;;;;5001971;28;20076;-65
2023/05/25 08:43:46;;;;;;;26.25;6.10;;;15.40;99.80;;;;;;5020877;28;20523;-65
2023/05/25 08:46:12;;;;;;;23.27;5.30;;;15.50;99.90;;;;;;5019490;28;20036;-65
2023/05/25 08:48:38;;;;;;;25.38;5.50;;;15.50;99.80;;;;;;5038782;28;20565;-65
2023/05/25 08:51:05;;;;;;;28.23;5.95;;;15.50;99.90;;;;;;5036619;28;20033;-65
2023/05/25 08:53:35;;;;;;;28.05;5.53;;;15.50;99.80;;;;;;5032510;28;20506;-65
2023/05/25 08:56:04;;;;;;;25.08;5.00;;;15.50;99.80;;;;;;5035435;28;20045;-65
2023/05/25 08:58:33;;;;;;;29.63;5.32;;;15.50;99.10;;;;;;5033505;28;20083;-65
2023/05/25 09:01:06;;;;;;;22.80;4.97;;;15.30;98.90;;;;;;5034641;28;20061;-65
2023/05/25 09:03:33;;;;;;;24.48;4.90;;;15.40;99.30;;;;;;5033172;28;20433;-65
2023/05/25 09:05:58;;;;;;;23.63;5.38;;;15.40;99.20;;;;;;5039837;28;20032;-65
2023/05/25 09:08:26;;;;;;;26.45;5.88;;;15.30;98.90;;;;;;5031872;28;20551;-65
2023/05/25 09:10:52;;;;;;;27.77;4.93;;;15.20;99.20;;;;;;5022918;28;20072;-65
2023/05/25 09:13:18;;;;;;;20.77;4.78;;;15.20;99.20;;;;;;5029229;28;20036;-65
2023/05/25 09:15:44;;;;;;;21.02;4.35;;;15.20;98.90;;;;;;5020651;28;22358;-65
2023/05/25 09:18:10;;;;;;;22.08;4.90;;;15.30;99.10;;;;;;5034308;28;20090;-65
2023/05/25 09:20:35;;;;;;;32.75;5.80;;;15.50;98.80;;;;;;5033533;28;20477;-65
2023/05/25 09:23:02;;;;;;;21.48;5.13;;;15.70;98.30;;;;;;5034137;28;20097;-65
2023/05/25 09:25:30;;;;;;;21.38;4.88;;;15.80;98.00;;;;;;5007311;28;20049;-65
2023/05/25 09:27:59;;;;;;;19.23;4.97;;;16.10;97.70;;;;;;5008612;28;20055;-65
2023/05/25 09:30:31;;;;;;;22.58;5.18;;;16.20;97.60;;;;;;5038112;28;20082;-66
2023/05/25 09:33:09;;;;;;;20.65;4.90;;;16.40;97.10;;;;;;5035517;28;20037;-65
2023/05/25 09:35:36;;;;;;;23.30;5.30;;;16.50;96.70;;;;;;5037446;28;20033;-65
2023/05/25 09:38:01;;;;;;;21.45;5.25;;;16.50;96.20;;;;;;5020175;28;20493;-65
2023/05/25 09:40:27;;;;;;;23.08;5.60;;;16.40;96.20;;;;;;5038300;28;20056;-65
2023/05/25 09:42:53;;;;;;;25.35;5.35;;;16.30;96.30;;;;;;5026447;28;20052;-65
2023/05/25 09:45:19;;;;;;;25.65;5.85;;;16.10;96.80;;;;;;5019275;28;20041;-65
2023/05/25 09:47:45;;;;;;;27.30;6.20;;;16.00;96.80;;;;;;5034240;28;20044;-65
2023/05/25 09:50:11;;;;;;;20.10;5.15;;;15.90;97.10;;;;;;5004190;28;21284;-65
2023/05/25 09:52:36;;;;;;;29.33;5.38;;;16.00;96.90;;;;;;5003328;28;20049;-66
2023/05/25 09:55:02;;;;;;;21.35;5.05;;;16.20;96.60;;;;;;5037041;28;20045;-65
2023/05/25 09:57:30;;;;;;;33.72;6.88;;;16.40;96.40;;;;;;5032551;28;20068;-65
2023/05/25 09:59:55;;;;;;;32.22;6.00;;;16.50;96.00;;;;;;4998045;28;20496;-65
2023/05/25 10:02:21;;;;;;;22.75;5.50;;;16.50;96.10;;;;;;5034628;28;20138;-65
2023/05/25 10:04:47;;;;;;;31.73;6.43;;;16.30;96.10;;;;;;5029414;28;20053;-66
2023/05/25 10:07:14;;;;;;;32.00;6.78;;;16.30;96.20;;;;;;5032441;28;20053;-65
2023/05/25 10:09:44;;;;;;;25.45;6.10;;;16.20;96.40;;;;;;5036323;28;20048;-66
2023/05/25 10:12:13;;;;;;;26.55;5.85;;;16.30;96.70;;;;;;5034314;28;20091;-66
2023/05/25 10:14:41;;;;;;;21.70;5.32;;;16.40;96.40;;;;;;5032145;28;20040;-66
2023/05/25 10:17:10;;;;;;;22.20;5.97;;;16.40;95.50;;;;;;5034744;28;20048;-65
2023/05/25 10:19:56;;;;;;;23.90;5.60;;;16.40;95.60;;;;;;5034708;28;20037;-65
2023/05/25 10:22:38;;;;;;;25.50;5.28;;;16.60;95.50;;;;;;5019508;28;20091;-66
2023/05/25 10:25:29;;;;;;;29.00;5.38;;;16.60;94.90;;;;;;5038231;28;20456;-66
2023/05/25 10:27:58;;;;;;;32.65;6.43;;;16.40;94.20;;;;;;5031402;28;20135;-65
2023/05/25 10:30:26;;;;;;;31.17;6.60;;;16.30;95.30;;;;;;5021793;28;20513;-66
2023/05/25 10:32:54;;;;;;;31.23;5.43;;;16.30;95.50;;;;;;5019294;28;20429;-65
2023/05/25 10:35:20;;;;;;;26.63;6.15;;;16.40;95.20;;;;;;5030721;28;20067;-66
2023/05/25 10:37:46;;;;;;;29.13;5.82;;;16.50;95.00;;;;;;4999545;28;20048;-65
2023/05/25 10:40:13;;;;;;;28.35;5.40;;;16.60;94.70;;;;;;5003681;28;20760;-66
2023/05/25 10:42:40;;;;;;;23.95;5.15;;;16.50;94.40;;;;;;5038923;28;20049;-66
2023/05/25 10:45:07;;;;;;;29.85;5.72;;;16.60;94.40;;;;;;5033520;28;22157;-66
2023/05/25 10:47:37;;;;;;;23.65;5.30;;;16.60;93.90;;;;;;5032965;28;20056;-66
2023/05/25 10:50:03;;;;;;;30.23;5.90;;;16.60;93.90;;;;;;5016792;28;20045;-66
2023/05/25 10:52:30;;;;;;;26.42;6.60;;;16.80;94.20;;;;;;5007138;28;20041;-66
2023/05/25 10:55:00;;;;;;;22.42;5.57;;;17.20;93.70;;;;;;5022078;28;20099;-66
2023/05/25 10:57:27;;;;;;;28.52;5.82;;;17.20;92.50;;;;;;5038001;28;20045;-66
2023/05/25 11:00:07;;;;;;;22.80;5.55;;;17.30;92.20;;;;;;5026310;28;20052;-66
2023/05/25 11:02:54;;;;;;;31.52;6.03;;;17.40;91.10;;;;;;5030607;28;20068;-66
2023/05/25 11:05:26;;;;;;;24.95;5.30;;;17.60;91.70;;;;;;5030712;28;20053;-66
2023/05/25 11:08:00;;;;;;;24.83;5.95;;;17.80;92.10;;;;;;5018572;28;20045;-66
2023/05/25 11:10:52;;;;;;;21.48;5.68;;;18.00;91.00;;;;;;5017414;28;20042;-66
2023/05/25 11:13:30;;;;;;;27.40;5.57;;;18.00;89.70;;;;;;5030635;28;20045;-66
2023/05/25 11:16:16;;;;;;;22.23;5.38;;;18.00;89.00;;;;;;5034411;28;20216;-66
2023/05/25 11:19:03;;;;;;;23.20;5.50;;;17.80;88.70;;;;;;5027040;28;20053;-66
2023/05/25 11:21:29;;;;;;;24.73;5.63;;;17.70;89.50;;;;;;5035863;28;20046;-66
2023/05/25 11:23:57;;;;;;;24.95;5.45;;;17.50;89.90;;;;;;5035773;28;20049;-66
2023/05/25 11:26:28;;;;;;;25.17;6.00;;;17.40;89.70;;;;;;5036405;28;20045;-66
2023/05/25 11:28:55;;;;;;;29.20;5.78;;;17.10;90.30;;;;;;5019916;28;20111;-66
2023/05/25 11:31:35;;;;;;;24.30;5.60;;;16.90;90.70;;;;;;5041886;28;20048;-66
2023/05/25 11:34:05;;;;;;;28.45;5.82;;;16.70;91.20;;;;;;5037247;28;20053;-66
2023/05/25 11:36:33;;;;;;;30.23;5.90;;;16.90;92.00;;;;;;5023930;28;20119;-66
2023/05/25 11:39:01;;;;;;;25.55;5.47;;;17.30;90.80;;;;;;5035994;28;20057;-66
2023/05/25 11:41:28;;;;;;;22.30;5.20;;;17.40;90.50;;;;;;5034004;28;20048;-66
2023/05/25 11:43:54;;;;;;;25.73;5.65;;;17.40;90.00;;;;;;5037116;28;20111;-65
2023/05/25 11:46:20;;;;;;;22.30;5.10;;;17.50;90.70;;;;;;5018861;28;21003;-66
2023/05/25 11:48:51;;;;;;;25.40;6.00;;;17.50;90.10;;;;;;5033133;28;20112;-66
2023/05/25 11:51:22;;;;;;;25.55;5.65;;;17.50;89.70;;;;;;5035570;28;20477;-66
2023/05/25 11:53:48;;;;;;;29.00;5.53;;;17.40;88.30;;;;;;5035447;28;20056;-66
2023/05/25 11:56:15;;;;;;;25.83;5.50;;;17.30;88.00;;;;;;5036755;28;20056;-66
2023/05/25 11:58:46;;;;;;;31.48;5.20;;;17.20;86.70;;;;;;5031153;28;20056;-66
2023/05/25 12:01:17;;;;;;;23.25;5.05;;;17.40;89.00;;;;;;5026054;28;20230;-66
2023/05/25 12:03:54;;;;;;;22.42;5.32;;;17.50;89.20;;;;;;5039485;28;20142;-66
2023/05/25 12:06:24;;;;;;;26.88;5.45;;;17.50;87.30;;;;;;5023048;28;20037;-66
2023/05/25 12:08:50;;;;;;;19.98;4.75;;;17.60;86.50;;;;;;5024921;28;20045;-66
2023/05/25 12:11:16;;;;;;;24.85;5.47;;;17.60;86.20;;;;;;5019631;28;20055;-66
2023/05/25 12:13:41;;;;;;;31.17;5.38;;;17.70;87.10;;;;;;5033084;28;20513;-66
2023/05/25 12:16:07;;;;;;;25.80;5.68;;;17.90;86.70;;;;;;4995950;28;20139;-66
2023/05/25 12:18:33;;;;;;;26.48;5.03;;;18.10;85.70;;;;;;5019918;28;20080;-66
2023/05/25 12:20:59;;;;;;;22.52;5.32;;;18.20;84.70;;;;;;5009139;28;20055;-66
2023/05/25 12:23:25;;;;;;;25.58;5.43;;;18.20;83.70;;;;;;5026936;28;20033;-66
2023/05/25 12:26:07;;;;;;;23.23;4.97;;;18.10;83.70;;;;;;5028551;28;20098;-66
2023/05/25 12:28:33;;;;;;;25.08;5.38;;;17.90;84.10;;;;;;5026725;28;20467;-66
2023/05/25 12:31:18;;;;;;;32.35;6.40;;;17.90;84.90;;;;;;5011007;28;20045;-66
2023/05/25 12:33:43;;;;;;;28.92;5.40;;;18.10;84.70;;;;;;5008395;28;20043;-63
2023/05/25 12:36:09;;;;;;;21.83;5.53;;;18.20;84.60;;;;;;5009975;28;20041;-64
2023/05/25 12:38:35;;;;;;;26.90;5.63;;;18.20;83.90;;;;;;5033633;28;20090;-63
2023/05/25 12:41:08;;;;;;;25.67;5.47;;;18.30;81.90;;;;;;5033446;28;20057;-64
2023/05/25 12:43:42;;;;;;;24.90;5.25;;;18.30;80.90;;;;;;5034953;28;20106;-64
2023/05/25 12:46:08;;;;;;;24.02;5.80;;;18.20;81.10;;;;;;5034816;28;20045;-64